sensor_id;sensor_type;location;lat;lon;timestamp;P1;durP1;ratioP1;P2;durP2;ratioP2
71973;SDS011;59840;52.122;5.404;2023-04-24T00:00:54;0.30;;;0.20;;
71973;SDS011;59840;52.122;5.404;2023-04-24T00:06:46;0.67;;;0.30;;
71973;SDS011;59840;52.122;5.404;2023-04-24T00:09:37;0.95;;;0.30;;
71973;SDS011;59840;52.122;5.404;2023-04-24T00:16:20;0.60;;;0.40;;
71973;SDS011;59840;52.122;5.404;2023-04-24T00:19:29;1.33;;;0.60;;
71973;SDS011;59840;52.122;5.404;2023-04-24T00:22:52;0.53;;;0.40;;
71973;SDS011;59840;52.122;5.404;2023-04-24T00:26:25;1.77;;;0.57;;
71973;SDS011;59840;52.122;5.404;2023-04-24T00:29:36;0.82;;;0.40;;
71973;SDS011;59840;52.122;5.404;2023-04-24T00:42:47;1.42;;;0.60;;
71973;SDS011;59840;52.122;5.404;2023-04-24T00:45:31;3.35;;;0.70;;
71973;SDS011;59840;52.122;5.404;2023-04-24T00:51:53;1.63;;;0.65;;
71973;SDS011;59840;52.122;5.404;2023-04-24T00:55:20;0.80;;;0.60;;
71973;SDS011;59840;52.122;5.404;2023-04-24T00:58:40;2.30;;;1.20;;
71973;SDS011;59840;52.122;5.404;2023-04-24T01:02:02;1.45;;;0.90;;
71973;SDS011;59840;52.122;5.404;2023-04-24T01:05:17;2.00;;;0.90;;
71973;SDS011;59840;52.122;5.404;2023-04-24T01:08:23;1.25;;;1.10;;
71973;SDS011;59840;52.122;5.404;2023-04-24T01:11:51;1.70;;;1.27;;
71973;SDS011;59840;52.122;5.404;2023-04-24T01:15:22;2.72;;;1.40;;
71973;SDS011;59840;52.122;5.404;2023-04-24T01:18:08;1.38;;;1.15;;
71973;SDS011;59840;52.122;5.404;2023-04-24T01:24:37;2.85;;;1.17;;
71973;SDS011;59840;52.122;5.404;2023-04-24T01:27:30;1.40;;;1.20;;
71973;SDS011;59840;52.122;5.404;2023-04-24T01:34:10;1.63;;;1.23;;
71973;SDS011;59840;52.122;5.404;2023-04-24T01:37:17;2.15;;;1.33;;
71973;SDS011;59840;52.122;5.404;2023-04-24T01:40:37;2.30;;;1.60;;
71973;SDS011;59840;52.122;5.404;2023-04-24T01:46:53;3.08;;;2.13;;
71973;SDS011;59840;52.122;5.404;2023-04-24T01:50:32;2.38;;;1.85;;
71973;SDS011;59840;52.122;5.404;2023-04-24T01:53:57;1.98;;;1.65;;
71973;SDS011;59840;52.122;5.404;2023-04-24T01:56:46;2.85;;;1.90;;
71973;SDS011;59840;52.122;5.404;2023-04-24T01:59:24;2.70;;;2.10;;
71973;SDS011;59840;52.122;5.404;2023-04-24T02:02:20;2.70;;;1.88;;
71973;SDS011;59840;52.122;5.404;2023-04-24T02:05:26;3.40;;;2.10;;
71973;SDS011;59840;52.122;5.404;2023-04-24T02:12:07;2.42;;;1.98;;
71973;SDS011;59840;52.122;5.404;2023-04-24T02:15:14;2.97;;;1.93;;
71973;SDS011;59840;52.122;5.404;2023-04-24T02:18:22;2.38;;;1.83;;
71973;SDS011;59840;52.122;5.404;2023-04-24T02:21:40;2.28;;;1.45;;
71973;SDS011;59840;52.122;5.404;2023-04-24T02:24:31;2.00;;;1.63;;
71973;SDS011;59840;52.122;5.404;2023-04-24T02:27:46;2.08;;;1.50;;
71973;SDS011;59840;52.122;5.404;2023-04-24T02:30:46;1.93;;;1.60;;
71973;SDS011;59840;52.122;5.404;2023-04-24T02:34:13;2.30;;;1.60;;
71973;SDS011;59840;52.122;5.404;2023-04-24T02:37:10;2.28;;;1.02;;
71973;SDS011;59840;52.122;5.404;2023-04-24T02:40:17;1.65;;;1.23;;
71973;SDS011;59840;52.122;5.404;2023-04-24T02:50:02;2.70;;;1.35;;
71973;SDS011;59840;52.122;5.404;2023-04-24T02:53:23;1.80;;;1.60;;
71973;SDS011;59840;52.122;5.404;2023-04-24T02:56:35;1.67;;;1.48;;
71973;SDS011;59840;52.122;5.404;2023-04-24T02:59:58;2.35;;;1.42;;
71973;SDS011;59840;52.122;5.404;2023-04-24T03:03:03;2.20;;;1.60;;
71973;SDS011;59840;52.122;5.404;2023-04-24T03:09:30;2.10;;;1.50;;
71973;SDS011;59840;52.122;5.404;2023-04-24T03:12:43;2.28;;;1.70;;
71973;SDS011;59840;52.122;5.404;2023-04-24T03:15:53;3.33;;;1.30;;
71973;SDS011;59840;52.122;5.404;2023-04-24T03:18:59;2.20;;;1.60;;
71973;SDS011;59840;52.122;5.404;2023-04-24T03:22:12;2.15;;;1.65;;
71973;SDS011;59840;52.122;5.404;2023-04-24T03:25:21;4.28;;;1.50;;
71973;SDS011;59840;52.122;5.404;2023-04-24T03:28:13;2.42;;;1.48;;
71973;SDS011;59840;52.122;5.404;2023-04-24T03:31:13;2.22;;;1.58;;
71973;SDS011;59840;52.122;5.404;2023-04-24T03:34:41;2.90;;;1.30;;
71973;SDS011;59840;52.122;5.404;2023-04-24T03:37:54;5.80;;;1.70;;
71973;SDS011;59840;52.122;5.404;2023-04-24T03:41:24;3.10;;;1.70;;
71973;SDS011;59840;52.122;5.404;2023-04-24T03:44:14;2.20;;;1.52;;
71973;SDS011;59840;52.122;5.404;2023-04-24T03:46:50;2.65;;;1.83;;
71973;SDS011;59840;52.122;5.404;2023-04-24T03:49:22;4.13;;;1.83;;
71973;SDS011;59840;52.122;5.404;2023-04-24T03:51:58;3.17;;;1.98;;
71973;SDS011;59840;52.122;5.404;2023-04-24T03:54:44;3.17;;;2.00;;
71973;SDS011;59840;52.122;5.404;2023-04-24T03:57:36;2.30;;;1.55;;
71973;SDS011;59840;52.122;5.404;2023-04-24T04:00:14;2.70;;;1.85;;
71973;SDS011;59840;52.122;5.404;2023-04-24T04:03:10;2.60;;;1.57;;
71973;SDS011;59840;52.122;5.404;2023-04-24T04:05:46;2.38;;;1.60;;
71973;SDS011;59840;52.122;5.404;2023-04-24T04:08:27;3.20;;;1.90;;
71973;SDS011;59840;52.122;5.404;2023-04-24T04:11:10;3.63;;;1.73;;
71973;SDS011;59840;52.122;5.404;2023-04-24T04:13:48;2.78;;;1.75;;
71973;SDS011;59840;52.122;5.404;2023-04-24T04:16:20;3.80;;;1.70;;
71973;SDS011;59840;52.122;5.404;2023-04-24T04:18:56;3.50;;;1.95;;
71973;SDS011;59840;52.122;5.404;2023-04-24T04:21:29;3.10;;;1.90;;
71973;SDS011;59840;52.122;5.404;2023-04-24T04:24:05;2.78;;;1.90;;
71973;SDS011;59840;52.122;5.404;2023-04-24T04:26:37;2.58;;;1.90;;
71973;SDS011;59840;52.122;5.404;2023-04-24T04:29:19;3.00;;;1.80;;
71973;SDS011;59840;52.122;5.404;2023-04-24T04:31:54;3.05;;;2.00;;
71973;SDS011;59840;52.122;5.404;2023-04-24T04:34:37;2.85;;;1.83;;
71973;SDS011;59840;52.122;5.404;2023-04-24T04:37:09;2.40;;;1.60;;
71973;SDS011;59840;52.122;5.404;2023-04-24T04:39:58;2.80;;;1.92;;
71973;SDS011;59840;52.122;5.404;2023-04-24T04:42:44;5.07;;;2.63;;
71973;SDS011;59840;52.122;5.404;2023-04-24T04:45:26;3.30;;;2.30;;
71973;SDS011;59840;52.122;5.404;2023-04-24T04:48:11;5.13;;;1.95;;
71973;SDS011;59840;52.122;5.404;2023-04-24T04:50:53;4.78;;;2.30;;
71973;SDS011;59840;52.122;5.404;2023-04-24T04:53:34;4.53;;;2.25;;
71973;SDS011;59840;52.122;5.404;2023-04-24T04:56:07;4.43;;;1.80;;
71973;SDS011;59840;52.122;5.404;2023-04-24T04:58:38;2.92;;;1.92;;
71973;SDS011;59840;52.122;5.404;2023-04-24T05:01:06;2.70;;;1.90;;
71973;SDS011;59840;52.122;5.404;2023-04-24T05:03:38;5.22;;;2.50;;
71973;SDS011;59840;52.122;5.404;2023-04-24T05:06:12;3.92;;;2.25;;
71973;SDS011;59840;52.122;5.404;2023-04-24T05:08:46;3.70;;;2.07;;
71973;SDS011;59840;52.122;5.404;2023-04-24T05:11:13;3.55;;;1.90;;
71973;SDS011;59840;52.122;5.404;2023-04-24T05:14:13;4.00;;;1.80;;
71973;SDS011;59840;52.122;5.404;2023-04-24T05:16:44;2.88;;;2.17;;
71973;SDS011;59840;52.122;5.404;2023-04-24T05:19:25;3.67;;;2.20;;
71973;SDS011;59840;52.122;5.404;2023-04-24T05:22:19;3.23;;;2.20;;
71973;SDS011;59840;52.122;5.404;2023-04-24T05:24:51;2.85;;;2.00;;
71973;SDS011;59840;52.122;5.404;2023-04-24T05:27:20;3.50;;;1.90;;
71973;SDS011;59840;52.122;5.404;2023-04-24T05:29:54;4.68;;;2.00;;
71973;SDS011;59840;52.122;5.404;2023-04-24T05:32:37;2.65;;;1.67;;
71973;SDS011;59840;52.122;5.404;2023-04-24T05:35:29;2.83;;;1.30;;
71973;SDS011;59840;52.122;5.404;2023-04-24T05:38:24;2.30;;;1.35;;
71973;SDS011;59840;52.122;5.404;2023-04-24T05:41:05;2.40;;;1.45;;
71973;SDS011;59840;52.122;5.404;2023-04-24T05:43:34;3.80;;;1.63;;
71973;SDS011;59840;52.122;5.404;2023-04-24T05:46:16;3.42;;;2.00;;
71973;SDS011;59840;52.122;5.404;2023-04-24T05:48:57;2.10;;;1.40;;
71973;SDS011;59840;52.122;5.404;2023-04-24T05:51:29;4.25;;;1.80;;
71973;SDS011;59840;52.122;5.404;2023-04-24T05:53:57;1.90;;;1.10;;
71973;SDS011;59840;52.122;5.404;2023-04-24T05:56:28;4.47;;;1.40;;
71973;SDS011;59840;52.122;5.404;2023-04-24T05:59:06;3.90;;;1.80;;
71973;SDS011;59840;52.122;5.404;2023-04-24T06:01:40;3.00;;;1.30;;
71973;SDS011;59840;52.122;5.404;2023-04-24T06:04:06;3.15;;;1.40;;
71973;SDS011;59840;52.122;5.404;2023-04-24T06:06:34;1.80;;;1.13;;
71973;SDS011;59840;52.122;5.404;2023-04-24T06:09:01;2.55;;;1.50;;
71973;SDS011;59840;52.122;5.404;2023-04-24T06:11:29;1.92;;;0.90;;
71973;SDS011;59840;52.122;5.404;2023-04-24T06:13:55;1.00;;;0.60;;
71973;SDS011;59840;52.122;5.404;2023-04-24T06:16:22;0.65;;;0.43;;
71973;SDS011;59840;52.122;5.404;2023-04-24T06:18:48;1.05;;;0.45;;
71973;SDS011;59840;52.122;5.404;2023-04-24T06:21:16;0.40;;;0.20;;
71973;SDS011;59840;52.122;5.404;2023-04-24T06:23:43;0.30;;;0.20;;
71973;SDS011;59840;52.122;5.404;2023-04-24T06:26:10;0.63;;;0.20;;
71973;SDS011;59840;52.122;5.404;2023-04-24T06:28:36;0.38;;;0.17;;
71973;SDS011;59840;52.122;5.404;2023-04-24T06:31:03;1.55;;;0.50;;
71973;SDS011;59840;52.122;5.404;2023-04-24T06:33:30;0.55;;;0.20;;
71973;SDS011;59840;52.122;5.404;2023-04-24T06:35:56;0.47;;;0.10;;
71973;SDS011;59840;52.122;5.404;2023-04-24T06:38:23;1.00;;;0.20;;
71973;SDS011;59840;52.122;5.404;2023-04-24T06:40:50;1.02;;;0.30;;
71973;SDS011;59840;52.122;5.404;2023-04-24T06:43:26;2.00;;;0.70;;
71973;SDS011;59840;52.122;5.404;2023-04-24T06:45:54;2.85;;;1.92;;
71973;SDS011;59840;52.122;5.404;2023-04-24T06:48:21;7.18;;;2.85;;
71973;SDS011;59840;52.122;5.404;2023-04-24T06:50:57;6.70;;;3.20;;
71973;SDS011;59840;52.122;5.404;2023-04-24T06:53:24;8.65;;;3.80;;
71973;SDS011;59840;52.122;5.404;2023-04-24T06:55:51;7.05;;;3.88;;
71973;SDS011;59840;52.122;5.404;2023-04-24T06:58:18;6.28;;;3.97;;
71973;SDS011;59840;52.122;5.404;2023-04-24T07:00:44;6.72;;;3.70;;
71973;SDS011;59840;52.122;5.404;2023-04-24T07:03:11;8.87;;;3.83;;
71973;SDS011;59840;52.122;5.404;2023-04-24T07:05:38;6.43;;;4.75;;
71973;SDS011;59840;52.122;5.404;2023-04-24T07:08:05;6.60;;;4.40;;
71973;SDS011;59840;52.122;5.404;2023-04-24T07:10:32;8.60;;;4.85;;
71973;SDS011;59840;52.122;5.404;2023-04-24T07:13:01;9.55;;;4.55;;
71973;SDS011;59840;52.122;5.404;2023-04-24T07:15:28;9.53;;;5.83;;
71973;SDS011;59840;52.122;5.404;2023-04-24T07:17:55;9.75;;;5.10;;
71973;SDS011;59840;52.122;5.404;2023-04-24T07:20:23;10.38;;;5.00;;
71973;SDS011;59840;52.122;5.404;2023-04-24T07:22:49;8.93;;;5.20;;
71973;SDS011;59840;52.122;5.404;2023-04-24T07:25:17;8.80;;;4.40;;
71973;SDS011;59840;52.122;5.404;2023-04-24T07:27:44;9.60;;;4.90;;
71973;SDS011;59840;52.122;5.404;2023-04-24T07:30:11;11.02;;;4.68;;
71973;SDS011;59840;52.122;5.404;2023-04-24T07:32:45;11.43;;;4.95;;
71973;SDS011;59840;52.122;5.404;2023-04-24T07:35:16;9.55;;;4.70;;
71973;SDS011;59840;52.122;5.404;2023-04-24T07:37:48;9.85;;;5.00;;
71973;SDS011;59840;52.122;5.404;2023-04-24T07:40:23;11.27;;;4.67;;
71973;SDS011;59840;52.122;5.404;2023-04-24T07:42:50;6.70;;;4.22;;
71973;SDS011;59840;52.122;5.404;2023-04-24T07:45:19;14.10;;;4.68;;
71973;SDS011;59840;52.122;5.404;2023-04-24T07:47:49;10.43;;;4.03;;
71973;SDS011;59840;52.122;5.404;2023-04-24T07:50:21;5.45;;;3.83;;
71973;SDS011;59840;52.122;5.404;2023-04-24T07:52:50;8.03;;;4.17;;
71973;SDS011;59840;52.122;5.404;2023-04-24T07:55:19;7.30;;;4.15;;
71973;SDS011;59840;52.122;5.404;2023-04-24T07:57:50;7.00;;;4.35;;
71973;SDS011;59840;52.122;5.404;2023-04-24T08:00:17;9.27;;;4.47;;
71973;SDS011;59840;52.122;5.404;2023-04-24T08:02:46;7.65;;;4.20;;
71973;SDS011;59840;52.122;5.404;2023-04-24T08:05:16;11.80;;;3.67;;
71973;SDS011;59840;52.122;5.404;2023-04-24T08:07:47;8.07;;;4.38;;
71973;SDS011;59840;52.122;5.404;2023-04-24T08:10:16;9.98;;;3.85;;
71973;SDS011;59840;52.122;5.404;2023-04-24T08:12:43;11.23;;;4.82;;
71973;SDS011;59840;52.122;5.404;2023-04-24T08:15:10;10.10;;;4.35;;
71973;SDS011;59840;52.122;5.404;2023-04-24T08:17:39;8.87;;;3.40;;
71973;SDS011;59840;52.122;5.404;2023-04-24T08:20:08;7.35;;;3.45;;
71973;SDS011;59840;52.122;5.404;2023-04-24T08:22:46;5.80;;;3.17;;
71973;SDS011;59840;52.122;5.404;2023-04-24T08:25:15;10.02;;;3.20;;
71973;SDS011;59840;52.122;5.404;2023-04-24T08:27:44;5.50;;;2.08;;
71973;SDS011;59840;52.122;5.404;2023-04-24T08:30:12;4.03;;;1.73;;
71973;SDS011;59840;52.122;5.404;2023-04-24T08:32:39;7.18;;;1.95;;
71973;SDS011;59840;52.122;5.404;2023-04-24T08:35:05;7.65;;;1.42;;
71973;SDS011;59840;52.122;5.404;2023-04-24T08:37:35;8.30;;;1.70;;
71973;SDS011;59840;52.122;5.404;2023-04-24T08:40:06;7.85;;;1.85;;
71973;SDS011;59840;52.122;5.404;2023-04-24T08:42:42;7.27;;;1.57;;
71973;SDS011;59840;52.122;5.404;2023-04-24T08:45:16;4.82;;;1.70;;
71973;SDS011;59840;52.122;5.404;2023-04-24T08:47:45;9.63;;;1.75;;
71973;SDS011;59840;52.122;5.404;2023-04-24T08:50:13;8.75;;;2.17;;
71973;SDS011;59840;52.122;5.404;2023-04-24T08:52:39;3.40;;;0.77;;
71973;SDS011;59840;52.122;5.404;2023-04-24T08:55:12;7.50;;;1.30;;
71973;SDS011;59840;52.122;5.404;2023-04-24T08:57:45;5.00;;;1.00;;
71973;SDS011;59840;52.122;5.404;2023-04-24T09:00:22;4.43;;;1.20;;
71973;SDS011;59840;52.122;5.404;2023-04-24T09:03:02;12.13;;;1.20;;
71973;SDS011;59840;52.122;5.404;2023-04-24T09:05:42;6.35;;;1.23;;
71973;SDS011;59840;52.122;5.404;2023-04-24T09:08:19;11.00;;;1.43;;
71973;SDS011;59840;52.122;5.404;2023-04-24T09:10:46;7.70;;;1.02;;
71973;SDS011;59840;52.122;5.404;2023-04-24T09:13:17;5.10;;;1.30;;
71973;SDS011;59840;52.122;5.404;2023-04-24T09:15:47;3.45;;;0.85;;
71973;SDS011;59840;52.122;5.404;2023-04-24T09:18:21;6.00;;;1.23;;
71973;SDS011;59840;52.122;5.404;2023-04-24T09:21:00;8.47;;;1.20;;
71973;SDS011;59840;52.122;5.404;2023-04-24T09:23:32;9.55;;;1.33;;
71973;SDS011;59840;52.122;5.404;2023-04-24T09:26:06;10.65;;;1.42;;
71973;SDS011;59840;52.122;5.404;2023-04-24T09:28:43;5.47;;;1.20;;
71973;SDS011;59840;52.122;5.404;2023-04-24T09:31:18;4.65;;;1.10;;
71973;SDS011;59840;52.122;5.404;2023-04-24T09:33:54;8.93;;;1.00;;
71973;SDS011;59840;52.122;5.404;2023-04-24T09:36:30;4.55;;;1.13;;
71973;SDS011;59840;52.122;5.404;2023-04-24T09:39:05;6.00;;;0.73;;
71973;SDS011;59840;52.122;5.404;2023-04-24T09:41:54;7.30;;;1.15;;
71973;SDS011;59840;52.122;5.404;2023-04-24T09:44:25;10.48;;;1.85;;
71973;SDS011;59840;52.122;5.404;2023-04-24T09:46:56;7.10;;;1.20;;
71973;SDS011;59840;52.122;5.404;2023-04-24T09:49:27;4.78;;;0.88;;
71973;SDS011;59840;52.122;5.404;2023-04-24T09:52:09;4.55;;;0.82;;
71973;SDS011;59840;52.122;5.404;2023-04-24T09:54:38;3.88;;;1.08;;
71973;SDS011;59840;52.122;5.404;2023-04-24T09:57:11;5.47;;;0.80;;
71973;SDS011;59840;52.122;5.404;2023-04-24T09:59:45;3.30;;;0.87;;
71973;SDS011;59840;52.122;5.404;2023-04-24T10:02:16;3.60;;;1.40;;
71973;SDS011;59840;52.122;5.404;2023-04-24T10:04:55;4.82;;;1.13;;
71973;SDS011;59840;52.122;5.404;2023-04-24T10:07:27;2.65;;;0.75;;
71973;SDS011;59840;52.122;5.404;2023-04-24T10:10:01;4.93;;;0.63;;
71973;SDS011;59840;52.122;5.404;2023-04-24T10:12:29;2.70;;;0.93;;
71973;SDS011;59840;52.122;5.404;2023-04-24T10:14:59;4.63;;;0.70;;
71973;SDS011;59840;52.122;5.404;2023-04-24T10:17:29;2.25;;;0.80;;
71973;SDS011;59840;52.122;5.404;2023-04-24T10:19:59;3.58;;;0.50;;
71973;SDS011;59840;52.122;5.404;2023-04-24T10:22:26;4.80;;;0.70;;
71973;SDS011;59840;52.122;5.404;2023-04-24T10:24:56;8.77;;;0.90;;
71973;SDS011;59840;52.122;5.404;2023-04-24T10:27:30;5.10;;;0.80;;
71973;SDS011;59840;52.122;5.404;2023-04-24T10:29:58;1.83;;;0.40;;
71973;SDS011;59840;52.122;5.404;2023-04-24T10:32:32;2.22;;;0.50;;
71973;SDS011;59840;52.122;5.404;2023-04-24T10:34:59;3.03;;;0.40;;
71973;SDS011;59840;52.122;5.404;2023-04-24T10:37:26;1.33;;;0.30;;
71973;SDS011;59840;52.122;5.404;2023-04-24T10:39:53;1.65;;;0.43;;
71973;SDS011;59840;52.122;5.404;2023-04-24T10:42:20;3.15;;;0.30;;
71973;SDS011;59840;52.122;5.404;2023-04-24T10:44:51;0.60;;;0.30;;
71973;SDS011;59840;52.122;5.404;2023-04-24T10:47:17;2.28;;;0.40;;
71973;SDS011;59840;52.122;5.404;2023-04-24T10:49:54;2.93;;;0.20;;
71973;SDS011;59840;52.122;5.404;2023-04-24T10:52:37;1.80;;;0.30;;
71973;SDS011;59840;52.122;5.404;2023-04-24T10:55:10;2.88;;;0.20;;
71973;SDS011;59840;52.122;5.404;2023-04-24T10:57:39;3.65;;;0.20;;
71973;SDS011;59840;52.122;5.404;2023-04-24T11:00:20;1.20;;;0.20;;
71973;SDS011;59840;52.122;5.404;2023-04-24T11:02:56;2.10;;;0.30;;
71973;SDS011;59840;52.122;5.404;2023-04-24T11:05:49;3.83;;;0.30;;
71973;SDS011;59840;52.122;5.404;2023-04-24T11:08:38;5.88;;;0.90;;
71973;SDS011;59840;52.122;5.404;2023-04-24T11:11:09;3.53;;;0.43;;
71973;SDS011;59840;52.122;5.404;2023-04-24T11:16:20;2.57;;;0.97;;
71973;SDS011;59840;52.122;5.404;2023-04-24T11:19:05;2.30;;;0.40;;
71973;SDS011;59840;52.122;5.404;2023-04-24T11:21:42;1.90;;;0.30;;
71973;SDS011;59840;52.122;5.404;2023-04-24T11:27:07;1.85;;;0.30;;
71973;SDS011;59840;52.122;5.404;2023-04-24T11:34:51;2.83;;;0.20;;
71973;SDS011;59840;52.122;5.404;2023-04-24T11:37:22;2.67;;;0.50;;
71973;SDS011;59840;52.122;5.404;2023-04-24T11:39:51;3.08;;;0.30;;
71973;SDS011;59840;52.122;5.404;2023-04-24T11:42:23;1.97;;;0.30;;
71973;SDS011;59840;52.122;5.404;2023-04-24T11:44:53;0.88;;;0.30;;
71973;SDS011;59840;52.122;5.404;2023-04-24T11:47:29;2.28;;;0.30;;
71973;SDS011;59840;52.122;5.404;2023-04-24T11:49:57;1.38;;;0.10;;
71973;SDS011;59840;52.122;5.404;2023-04-24T11:52:42;0.82;;;0.10;;
71973;SDS011;59840;52.122;5.404;2023-04-24T11:57:48;1.10;;;0.13;;
71973;SDS011;59840;52.122;5.404;2023-04-24T12:00:23;0.32;;;0.10;;
71973;SDS011;59840;52.122;5.404;2023-04-24T12:03:04;0.40;;;0.10;;
71973;SDS011;59840;52.122;5.404;2023-04-24T12:05:33;2.33;;;0.20;;
71973;SDS011;59840;52.122;5.404;2023-04-24T12:08:03;0.47;;;0.10;;
71973;SDS011;59840;52.122;5.404;2023-04-24T12:10:31;0.95;;;0.10;;
71973;SDS011;59840;52.122;5.404;2023-04-24T12:13:09;0.77;;;0.10;;
71973;SDS011;59840;52.122;5.404;2023-04-24T12:15:39;0.85;;;0.10;;
71973;SDS011;59840;52.122;5.404;2023-04-24T12:18:11;1.40;;;0.32;;
71973;SDS011;59840;52.122;5.404;2023-04-24T12:20:43;1.10;;;0.30;;
71973;SDS011;59840;52.122;5.404;2023-04-24T12:23:13;2.03;;;0.20;;
71973;SDS011;59840;52.122;5.404;2023-04-24T12:25:40;1.50;;;0.20;;
71973;SDS011;59840;52.122;5.404;2023-04-24T12:28:09;0.93;;;0.20;;
71973;SDS011;59840;52.122;5.404;2023-04-24T12:30:51;5.78;;;0.40;;
71973;SDS011;59840;52.122;5.404;2023-04-24T12:33:23;3.20;;;0.30;;
71973;SDS011;59840;52.122;5.404;2023-04-24T12:35:52;1.67;;;0.20;;
71973;SDS011;59840;52.122;5.404;2023-04-24T12:38:25;2.55;;;0.60;;
71973;SDS011;59840;52.122;5.404;2023-04-24T12:41:03;5.85;;;0.40;;
71973;SDS011;59840;52.122;5.404;2023-04-24T12:43:31;2.63;;;0.35;;
71973;SDS011;59840;52.122;5.404;2023-04-24T12:45:58;2.33;;;0.37;;
71973;SDS011;59840;52.122;5.404;2023-04-24T12:48:26;4.22;;;0.88;;
71973;SDS011;59840;52.122;5.404;2023-04-24T12:50:57;1.73;;;0.55;;
71973;SDS011;59840;52.122;5.404;2023-04-24T12:53:27;3.75;;;0.85;;
71973;SDS011;59840;52.122;5.404;2023-04-24T12:55:57;3.53;;;0.60;;
71973;SDS011;59840;52.122;5.404;2023-04-24T12:58:26;6.03;;;0.40;;
71973;SDS011;59840;52.122;5.404;2023-04-24T13:00:52;3.15;;;0.45;;
71973;SDS011;59840;52.122;5.404;2023-04-24T13:03:21;5.47;;;0.77;;
71973;SDS011;59840;52.122;5.404;2023-04-24T13:05:51;5.07;;;0.50;;
71973;SDS011;59840;52.122;5.404;2023-04-24T13:08:21;4.15;;;0.50;;
71973;SDS011;59840;52.122;5.404;2023-04-24T13:10:47;5.33;;;0.50;;
71973;SDS011;59840;52.122;5.404;2023-04-24T13:13:17;6.43;;;0.60;;
71973;SDS011;59840;52.122;5.404;2023-04-24T13:15:45;6.82;;;0.85;;
71973;SDS011;59840;52.122;5.404;2023-04-24T13:18:12;3.80;;;0.88;;
71973;SDS011;59840;52.122;5.404;2023-04-24T13:20:41;3.47;;;0.73;;
71973;SDS011;59840;52.122;5.404;2023-04-24T13:23:08;3.83;;;0.60;;
71973;SDS011;59840;52.122;5.404;2023-04-24T13:25:35;3.47;;;0.60;;
71973;SDS011;59840;52.122;5.404;2023-04-24T13:28:04;5.75;;;1.05;;
71973;SDS011;59840;52.122;5.404;2023-04-24T13:30:42;6.60;;;0.70;;
71973;SDS011;59840;52.122;5.404;2023-04-24T13:33:09;5.25;;;1.05;;
71973;SDS011;59840;52.122;5.404;2023-04-24T13:35:36;4.00;;;0.63;;
71973;SDS011;59840;52.122;5.404;2023-04-24T13:38:03;4.10;;;0.80;;
71973;SDS011;59840;52.122;5.404;2023-04-24T13:40:32;7.55;;;0.85;;
71973;SDS011;59840;52.122;5.404;2023-04-24T13:43:03;8.98;;;0.82;;
71973;SDS011;59840;52.122;5.404;2023-04-24T13:45:30;5.75;;;1.50;;
71973;SDS011;59840;52.122;5.404;2023-04-24T13:47:56;5.17;;;0.87;;
71973;SDS011;59840;52.122;5.404;2023-04-24T13:50:28;4.57;;;0.70;;
71973;SDS011;59840;52.122;5.404;2023-04-24T13:52:57;4.63;;;1.02;;
71973;SDS011;59840;52.122;5.404;2023-04-24T13:55:36;7.25;;;0.90;;
71973;SDS011;59840;52.122;5.404;2023-04-24T13:58:04;4.47;;;0.93;;
71973;SDS011;59840;52.122;5.404;2023-04-24T14:00:36;4.20;;;1.27;;
71973;SDS011;59840;52.122;5.404;2023-04-24T14:03:05;5.40;;;0.95;;
71973;SDS011;59840;52.122;5.404;2023-04-24T14:05:38;5.22;;;0.90;;
71973;SDS011;59840;52.122;5.404;2023-04-24T14:08:07;6.60;;;0.88;;
71973;SDS011;59840;52.122;5.404;2023-04-24T14:10:36;5.38;;;1.23;;
71973;SDS011;59840;52.122;5.404;2023-04-24T14:13:03;4.77;;;1.10;;
71973;SDS011;59840;52.122;5.404;2023-04-24T14:15:29;5.22;;;0.75;;
71973;SDS011;59840;52.122;5.404;2023-04-24T14:17:58;4.55;;;1.00;;
71973;SDS011;59840;52.122;5.404;2023-04-24T14:20:25;5.38;;;0.80;;
71973;SDS011;59840;52.122;5.404;2023-04-24T14:22:53;8.63;;;1.50;;
71973;SDS011;59840;52.122;5.404;2023-04-24T14:25:19;2.60;;;1.00;;
71973;SDS011;59840;52.122;5.404;2023-04-24T14:27:46;6.18;;;1.02;;
71973;SDS011;59840;52.122;5.404;2023-04-24T14:30:19;3.85;;;0.82;;
71973;SDS011;59840;52.122;5.404;2023-04-24T14:32:59;5.22;;;0.95;;
71973;SDS011;59840;52.122;5.404;2023-04-24T14:35:26;5.80;;;1.25;;
71973;SDS011;59840;52.122;5.404;2023-04-24T14:37:56;5.63;;;1.67;;
71973;SDS011;59840;52.122;5.404;2023-04-24T14:40:23;4.18;;;0.90;;
71973;SDS011;59840;52.122;5.404;2023-04-24T14:43:10;5.63;;;1.30;;
71973;SDS011;59840;52.122;5.404;2023-04-24T14:45:38;5.57;;;1.20;;
71973;SDS011;59840;52.122;5.404;2023-04-24T14:48:07;6.57;;;1.50;;
71973;SDS011;59840;52.122;5.404;2023-04-24T14:50:35;5.90;;;1.83;;
71973;SDS011;59840;52.122;5.404;2023-04-24T14:53:02;4.45;;;1.10;;
71973;SDS011;59840;52.122;5.404;2023-04-24T14:55:28;3.45;;;1.15;;
71973;SDS011;59840;52.122;5.404;2023-04-24T14:58:00;3.78;;;1.13;;
71973;SDS011;59840;52.122;5.404;2023-04-24T15:00:26;5.75;;;1.20;;
71973;SDS011;59840;52.122;5.404;2023-04-24T15:02:55;5.07;;;1.40;;
71973;SDS011;59840;52.122;5.404;2023-04-24T15:05:22;8.35;;;1.80;;
71973;SDS011;59840;52.122;5.404;2023-04-24T15:07:51;7.53;;;2.10;;
71973;SDS011;59840;52.122;5.404;2023-04-24T15:10:17;3.85;;;1.05;;
71973;SDS011;59840;52.122;5.404;2023-04-24T15:12:44;7.93;;;1.48;;
71973;SDS011;59840;52.122;5.404;2023-04-24T15:15:11;6.33;;;1.20;;
71973;SDS011;59840;52.122;5.404;2023-04-24T15:17:37;8.35;;;1.30;;
71973;SDS011;59840;52.122;5.404;2023-04-24T15:20:04;3.15;;;1.35;;
71973;SDS011;59840;52.122;5.404;2023-04-24T15:22:32;8.15;;;1.73;;
71973;SDS011;59840;52.122;5.404;2023-04-24T15:24:59;7.32;;;1.75;;
71973;SDS011;59840;52.122;5.404;2023-04-24T15:27:25;6.37;;;1.43;;
71973;SDS011;59840;52.122;5.404;2023-04-24T15:29:52;9.45;;;1.88;;
71973;SDS011;59840;52.122;5.404;2023-04-24T15:32:19;8.00;;;1.40;;
71973;SDS011;59840;52.122;5.404;2023-04-24T15:34:46;7.72;;;1.35;;
71973;SDS011;59840;52.122;5.404;2023-04-24T15:37:16;8.85;;;1.40;;
71973;SDS011;59840;52.122;5.404;2023-04-24T15:39:44;8.50;;;1.77;;
71973;SDS011;59840;52.122;5.404;2023-04-24T15:42:11;6.10;;;1.50;;
71973;SDS011;59840;52.122;5.404;2023-04-24T15:44:37;7.43;;;1.92;;
71973;SDS011;59840;52.122;5.404;2023-04-24T15:47:04;8.23;;;1.48;;
71973;SDS011;59840;52.122;5.404;2023-04-24T15:49:31;5.40;;;1.10;;
71973;SDS011;59840;52.122;5.404;2023-04-24T15:51:58;5.67;;;1.40;;
71973;SDS011;59840;52.122;5.404;2023-04-24T15:54:25;6.32;;;1.42;;
71973;SDS011;59840;52.122;5.404;2023-04-24T15:56:51;6.32;;;1.70;;
71973;SDS011;59840;52.122;5.404;2023-04-24T15:59:18;7.13;;;1.38;;
71973;SDS011;59840;52.122;5.404;2023-04-24T16:01:45;8.02;;;1.65;;
71973;SDS011;59840;52.122;5.404;2023-04-24T16:04:12;7.17;;;2.00;;
71973;SDS011;59840;52.122;5.404;2023-04-24T16:06:39;5.15;;;1.55;;
71973;SDS011;59840;52.122;5.404;2023-04-24T16:09:05;6.93;;;1.88;;
71973;SDS011;59840;52.122;5.404;2023-04-24T16:11:33;6.85;;;1.48;;
71973;SDS011;59840;52.122;5.404;2023-04-24T16:14:02;6.63;;;1.58;;
71973;SDS011;59840;52.122;5.404;2023-04-24T16:16:29;6.90;;;1.50;;
71973;SDS011;59840;52.122;5.404;2023-04-24T16:18:56;4.43;;;1.17;;
71973;SDS011;59840;52.122;5.404;2023-04-24T16:21:22;5.28;;;1.60;;
71973;SDS011;59840;52.122;5.404;2023-04-24T16:23:49;6.40;;;1.38;;
71973;SDS011;59840;52.122;5.404;2023-04-24T16:26:16;6.13;;;1.45;;
71973;SDS011;59840;52.122;5.404;2023-04-24T16:28:42;5.07;;;1.73;;
71973;SDS011;59840;52.122;5.404;2023-04-24T16:31:09;5.03;;;1.48;;
71973;SDS011;59840;52.122;5.404;2023-04-24T16:33:36;5.47;;;1.30;;
71973;SDS011;59840;52.122;5.404;2023-04-24T16:36:02;3.03;;;1.30;;
71973;SDS011;59840;52.122;5.404;2023-04-24T16:38:35;7.25;;;1.52;;
71973;SDS011;59840;52.122;5.404;2023-04-24T16:41:02;6.47;;;1.30;;
71973;SDS011;59840;52.122;5.404;2023-04-24T16:43:29;6.05;;;1.63;;
71973;SDS011;59840;52.122;5.404;2023-04-24T16:45:56;7.43;;;1.35;;